sensor_id;sensor_type;location;lat;lon;timestamp;P1;P2;P0
35654;PMS1003;21773;50.010;19.972;2022-08-25T00:00:46;13.00;13.00;11.00
35654;PMS1003;21773;50.010;19.972;2022-08-25T00:03:51;14.40;13.00;12.00
35654;PMS1003;21773;50.010;19.972;2022-08-25T00:06:54;14.00;13.00;13.00
35654;PMS1003;21773;50.010;19.972;2022-08-25T00:10:05;13.00;12.00;11.50
35654;PMS1003;21773;50.010;19.972;2022-08-25T00:13:10;12.00;11.25;11.00
35654;PMS1003;21773;50.010;19.972;2022-08-25T00:16:16;14.20;14.00;13.00
35654;PMS1003;21773;50.010;19.972;2022-08-25T00:19:21;12.00;11.00;11.00
35654;PMS1003;21773;50.010;19.972;2022-08-25T00:22:27;12.25;11.25;11.00
35654;PMS1003;21773;50.010;19.972;2022-08-25T00:25:32;15.20;14.80;13.00
35654;PMS1003;21773;50.010;19.972;2022-08-25T00:28:36;14.60;13.00;12.60
35654;PMS1003;21773;50.010;19.972;2022-08-25T00:31:41;11.00;10.60;10.00
35654;PMS1003;21773;50.010;19.972;2022-08-25T00:34:45;12.00;11.60;11.00
35654;PMS1003;21773;50.010;19.972;2022-08-25T00:37:48;13.00;13.00;12.00
35654;PMS1003;21773;50.010;19.972;2022-08-25T00:40:53;15.20;14.00;14.00
35654;PMS1003;21773;50.010;19.972;2022-08-25T00:44:08;14.50;12.50;11.50
35654;PMS1003;21773;50.010;19.972;2022-08-25T00:47:12;12.00;11.00;10.00
35654;PMS1003;21773;50.010;19.972;2022-08-25T00:50:16;13.40;12.40;12.40
35654;PMS1003;21773;50.010;19.972;2022-08-25T00:53:22;12.00;11.40;11.00
35654;PMS1003;21773;50.010;19.972;2022-08-25T00:56:27;14.00;13.00;13.00
35654;PMS1003;21773;50.010;19.972;2022-08-25T00:59:32;14.00;12.20;11.00
35654;PMS1003;21773;50.010;19.972;2022-08-25T01:02:36;16.75;16.25;15.50
35654;PMS1003;21773;50.010;19.972;2022-08-25T01:05:40;11.60;11.60;10.60
35654;PMS1003;21773;50.010;19.972;2022-08-25T01:08:48;13.60;13.40;12.40
35654;PMS1003;21773;50.010;19.972;2022-08-25T01:11:53;13.00;13.00;12.00
35654;PMS1003;21773;50.010;19.972;2022-08-25T01:14:57;14.00;13.60;13.00
35654;PMS1003;21773;50.010;19.972;2022-08-25T01:18:02;10.20;10.20;9.00
35654;PMS1003;21773;50.010;19.972;2022-08-25T01:21:07;12.00;12.00;11.00
35654;PMS1003;21773;50.010;19.972;2022-08-25T01:24:13;11.33;11.33;10.33
35654;PMS1003;21773;50.010;19.972;2022-08-25T01:27:22;12.40;11.00;11.00
35654;PMS1003;21773;50.010;19.972;2022-08-25T01:30:26;12.00;12.00;12.00
35654;PMS1003;21773;50.010;19.972;2022-08-25T01:33:29;16.00;14.00;13.00
35654;PMS1003;21773;50.010;19.972;2022-08-25T01:36:34;15.00;14.00;14.00
35654;PMS1003;21773;50.010;19.972;2022-08-25T01:39:38;15.00;15.00;14.00
35654;PMS1003;21773;50.010;19.972;2022-08-25T01:42:46;13.60;12.60;11.60
35654;PMS1003;21773;50.010;19.972;2022-08-25T01:45:56;14.60;13.60;12.00
35654;PMS1003;21773;50.010;19.972;2022-08-25T01:49:00;12.60;12.00;11.00
35654;PMS1003;21773;50.010;19.972;2022-08-25T01:52:11;13.60;13.60;12.60
35654;PMS1003;21773;50.010;19.972;2022-08-25T01:55:18;16.00;16.00;15.60
35654;PMS1003;21773;50.010;19.972;2022-08-25T01:58:25;16.75;15.25;14.25
35654;PMS1003;21773;50.010;19.972;2022-08-25T02:01:30;14.40;14.00;13.00
35654;PMS1003;21773;50.010;19.972;2022-08-25T02:04:34;15.00;14.40;13.00
35654;PMS1003;21773;50.010;19.972;2022-08-25T02:07:39;18.20;18.20;17.20
35654;PMS1003;21773;50.010;19.972;2022-08-25T02:10:43;12.60;12.40;11.60
35654;PMS1003;21773;50.010;19.972;2022-08-25T02:13:47;12.00;11.25;10.25
35654;PMS1003;21773;50.010;19.972;2022-08-25T02:16:52;13.00;13.00;12.00
35654;PMS1003;21773;50.010;19.972;2022-08-25T02:19:56;16.80;16.00;15.20
35654;PMS1003;21773;50.010;19.972;2022-08-25T02:23:01;19.00;18.00;17.00
35654;PMS1003;21773;50.010;19.972;2022-08-25T02:26:04;14.60;13.60;12.60
35654;PMS1003;21773;50.010;19.972;2022-08-25T02:29:08;16.40;15.00;14.40
35654;PMS1003;21773;50.010;19.972;2022-08-25T02:32:12;15.60;14.60;13.60
35654;PMS1003;21773;50.010;19.972;2022-08-25T02:35:16;15.00;14.60;13.40
35654;PMS1003;21773;50.010;19.972;2022-08-25T02:38:20;14.00;14.00;13.00
35654;PMS1003;21773;50.010;19.972;2022-08-25T02:41:24;14.80;13.60;12.60
35654;PMS1003;21773;50.010;19.972;2022-08-25T02:44:33;13.00;12.00;11.00
35654;PMS1003;21773;50.010;19.972;2022-08-25T02:47:36;20.25;20.25;19.00
35654;PMS1003;21773;50.010;19.972;2022-08-25T02:50:39;17.00;14.60;13.60
35654;PMS1003;21773;50.010;19.972;2022-08-25T02:53:49;16.40;16.40;16.00
35654;PMS1003;21773;50.010;19.972;2022-08-25T02:56:53;14.20;13.00;11.80
35654;PMS1003;21773;50.010;19.972;2022-08-25T02:59:58;17.25;16.25;16.00
35654;PMS1003;21773;50.010;19.972;2022-08-25T03:03:01;13.60;12.60;12.00
35654;PMS1003;21773;50.010;19.972;2022-08-25T03:06:06;11.00;10.80;9.80
35654;PMS1003;21773;50.010;19.972;2022-08-25T03:09:11;16.00;16.00;15.00
35654;PMS1003;21773;50.010;19.972;2022-08-25T03:12:15;15.00;14.00;13.00
35654;PMS1003;21773;50.010;19.972;2022-08-25T03:15:18;14.60;13.60;12.60
35654;PMS1003;21773;50.010;19.972;2022-08-25T03:18:22;17.00;16.00;15.00
35654;PMS1003;21773;50.010;19.972;2022-08-25T03:21:25;16.00;14.00;13.00
35654;PMS1003;21773;50.010;19.972;2022-08-25T03:24:32;18.00;16.00;14.00
35654;PMS1003;21773;50.010;19.972;2022-08-25T03:27:35;18.20;17.40;16.00
35654;PMS1003;21773;50.010;19.972;2022-08-25T03:30:38;20.00;19.00;17.00
35654;PMS1003;21773;50.010;19.972;2022-08-25T03:33:41;28.00;28.00;23.40
35654;PMS1003;21773;50.010;19.972;2022-08-25T03:36:45;31.25;30.00;25.25
35654;PMS1003;21773;50.010;19.972;2022-08-25T03:39:51;25.25;25.25;22.25
35654;PMS1003;21773;50.010;19.972;2022-08-25T03:42:55;21.33;21.33;20.00
35654;PMS1003;21773;50.010;19.972;2022-08-25T03:45:58;17.20;15.60;14.60
35654;PMS1003;21773;50.010;19.972;2022-08-25T03:49:02;22.00;21.60;20.00
35654;PMS1003;21773;50.010;19.972;2022-08-25T03:52:08;23.00;21.40;20.00
35654;PMS1003;21773;50.010;19.972;2022-08-25T03:55:13;29.00;28.60;24.00
35654;PMS1003;21773;50.010;19.972;2022-08-25T03:58:17;33.00;30.60;26.00
35654;PMS1003;21773;50.010;19.972;2022-08-25T04:01:20;34.00;32.00;27.00
35654;PMS1003;21773;50.010;19.972;2022-08-25T04:04:24;39.20;34.80;28.80
35654;PMS1003;21773;50.010;19.972;2022-08-25T04:07:27;36.00;32.20;27.20
35654;PMS1003;21773;50.010;19.972;2022-08-25T04:10:32;36.75;33.75;28.00
35654;PMS1003;21773;50.010;19.972;2022-08-25T04:13:35;38.00;33.00;28.00
35654;PMS1003;21773;50.010;19.972;2022-08-25T04:16:39;42.50;36.00;30.00
35654;PMS1003;21773;50.010;19.972;2022-08-25T04:19:42;31.00;30.00;25.00
35654;PMS1003;21773;50.010;19.972;2022-08-25T04:22:46;32.00;31.00;26.00
35654;PMS1003;21773;50.010;19.972;2022-08-25T04:25:51;28.50;28.00;24.00
35654;PMS1003;21773;50.010;19.972;2022-08-25T04:28:55;33.00;30.00;24.00
35654;PMS1003;21773;50.010;19.972;2022-08-25T04:32:01;32.00;30.00;26.00
35654;PMS1003;21773;50.010;19.972;2022-08-25T04:35:05;34.75;32.25;27.25
35654;PMS1003;21773;50.010;19.972;2022-08-25T04:38:09;34.00;32.00;27.00
35654;PMS1003;21773;50.010;19.972;2022-08-25T04:41:14;38.00;34.00;28.00
35654;PMS1003;21773;50.010;19.972;2022-08-25T04:44:20;29.25;28.50;24.25
35654;PMS1003;21773;50.010;19.972;2022-08-25T04:47:23;27.75;26.00;22.00
35654;PMS1003;21773;50.010;19.972;2022-08-25T04:50:28;28.80;25.00;22.00
35654;PMS1003;21773;50.010;19.972;2022-08-25T04:53:33;25.00;24.00;21.00
35654;PMS1003;21773;50.010;19.972;2022-08-25T04:56:39;29.00;28.75;24.00
35654;PMS1003;21773;50.010;19.972;2022-08-25T04:59:43;32.25;31.25;26.00
35654;PMS1003;21773;50.010;19.972;2022-08-25T05:02:46;30.50;29.50;25.00
35654;PMS1003;21773;50.010;19.972;2022-08-25T05:05:51;19.50;19.00;18.00
35654;PMS1003;21773;50.010;19.972;2022-08-25T05:08:55;18.60;17.60;16.40
35654;PMS1003;21773;50.010;19.972;2022-08-25T05:12:01;19.75;18.00;16.00
35654;PMS1003;21773;50.010;19.972;2022-08-25T05:15:05;18.00;17.80;17.00
35654;PMS1003;21773;50.010;19.972;2022-08-25T05:18:23;15.00;14.00;12.00
35654;PMS1003;21773;50.010;19.972;2022-08-25T05:21:29;15.80;14.80;13.20
35654;PMS1003;21773;50.010;19.972;2022-08-25T05:24:33;17.00;16.00;14.40
35654;PMS1003;21773;50.010;19.972;2022-08-25T05:27:37;20.00;19.00;18.00
35654;PMS1003;21773;50.010;19.972;2022-08-25T05:30:43;15.25;14.25;13.00
35654;PMS1003;21773;50.010;19.972;2022-08-25T05:33:47;14.50;12.00;11.00
35654;PMS1003;21773;50.010;19.972;2022-08-25T05:36:51;20.40;17.00;14.60
35654;PMS1003;21773;50.010;19.972;2022-08-25T05:39:55;16.00;14.00;12.25
35654;PMS1003;21773;50.010;19.972;2022-08-25T05:43:00;15.20;13.80;12.00
35654;PMS1003;21773;50.010;19.972;2022-08-25T05:46:03;14.60;14.00;13.00
35654;PMS1003;21773;50.010;19.972;2022-08-25T05:49:07;19.00;18.20;16.20
35654;PMS1003;21773;50.010;19.972;2022-08-25T05:52:10;13.80;13.20;11.80
35654;PMS1003;21773;50.010;19.972;2022-08-25T05:55:20;16.60;16.00;14.40
35654;PMS1003;21773;50.010;19.972;2022-08-25T05:58:25;13.50;12.50;11.00
35654;PMS1003;21773;50.010;19.972;2022-08-25T06:01:30;15.00;14.00;13.20
35654;PMS1003;21773;50.010;19.972;2022-08-25T06:04:51;15.20;14.00;12.20
35654;PMS1003;21773;50.010;19.972;2022-08-25T06:07:54;16.00;14.25;13.00
35654;PMS1003;21773;50.010;19.972;2022-08-25T06:10:58;14.00;12.60;11.00
35654;PMS1003;21773;50.010;19.972;2022-08-25T06:14:02;18.40;16.00;14.60
35654;PMS1003;21773;50.010;19.972;2022-08-25T06:17:07;17.80;15.20;13.20
35654;PMS1003;21773;50.010;19.972;2022-08-25T06:20:11;17.00;14.25;13.25
35654;PMS1003;21773;50.010;19.972;2022-08-25T06:23:16;15.00;15.00;14.00
35654;PMS1003;21773;50.010;19.972;2022-08-25T06:26:20;14.80;13.00;12.00
35654;PMS1003;21773;50.010;19.972;2022-08-25T06:29:25;15.00;14.00;13.00
35654;PMS1003;21773;50.010;19.972;2022-08-25T06:32:29;15.75;14.75;13.75
35654;PMS1003;21773;50.010;19.972;2022-08-25T06:35:33;19.00;18.00;17.00
35654;PMS1003;21773;50.010;19.972;2022-08-25T06:38:39;17.00;16.00;15.50
35654;PMS1003;21773;50.010;19.972;2022-08-25T06:41:42;13.60;13.60;12.00
35654;PMS1003;21773;50.010;19.972;2022-08-25T06:44:47;17.00;16.00;15.00
35654;PMS1003;21773;50.010;19.972;2022-08-25T06:47:50;19.60;18.60;17.40
35654;PMS1003;21773;50.010;19.972;2022-08-25T06:50:55;22.80;19.40;17.40
35654;PMS1003;21773;50.010;19.972;2022-08-25T06:53:58;16.00;13.00;10.75
35654;PMS1003;21773;50.010;19.972;2022-08-25T06:57:02;19.75;18.75;16.75
35654;PMS1003;21773;50.010;19.972;2022-08-25T07:00:08;22.40;20.40;18.40
35654;PMS1003;21773;50.010;19.972;2022-08-25T07:03:13;19.20;18.20;16.00
35654;PMS1003;21773;50.010;19.972;2022-08-25T07:06:16;18.00;16.00;14.80
35654;PMS1003;21773;50.010;19.972;2022-08-25T07:09:20;18.00;16.00;15.00
35654;PMS1003;21773;50.010;19.972;2022-08-25T07:12:23;19.60;19.00;17.60
35654;PMS1003;21773;50.010;19.972;2022-08-25T07:15:28;23.40;19.80;17.80
35654;PMS1003;21773;50.010;19.972;2022-08-25T07:18:32;17.60;15.60;13.60
35654;PMS1003;21773;50.010;19.972;2022-08-25T07:21:36;20.75;20.00;18.00
35654;PMS1003;21773;50.010;19.972;2022-08-25T07:24:42;21.00;20.00;19.00
35654;PMS1003;21773;50.010;19.972;2022-08-25T07:27:46;22.40;22.00;20.00
35654;PMS1003;21773;50.010;19.972;2022-08-25T07:30:50;20.00;19.00;18.00
35654;PMS1003;21773;50.010;19.972;2022-08-25T07:33:54;21.00;19.00;16.00
35654;PMS1003;21773;50.010;19.972;2022-08-25T07:37:14;21.00;20.40;19.00
35654;PMS1003;21773;50.010;19.972;2022-08-25T07:40:38;21.00;18.00;17.00
35654;PMS1003;21773;50.010;19.972;2022-08-25T07:43:43;23.60;23.00;20.00
35654;PMS1003;21773;50.010;19.972;2022-08-25T07:46:52;19.25;19.00;17.75
35654;PMS1003;21773;50.010;19.972;2022-08-25T07:49:55;20.75;19.00;18.00
35654;PMS1003;21773;50.010;19.972;2022-08-25T07:52:59;19.00;18.00;16.00
35654;PMS1003;21773;50.010;19.972;2022-08-25T07:56:07;18.80;18.40;16.40
35654;PMS1003;21773;50.010;19.972;2022-08-25T07:59:12;26.00;22.00;20.00
35654;PMS1003;21773;50.010;19.972;2022-08-25T08:02:17;19.50;19.00;17.50
35654;PMS1003;21773;50.010;19.972;2022-08-25T08:05:24;18.00;17.00;16.00
35654;PMS1003;21773;50.010;19.972;2022-08-25T08:08:29;18.00;16.00;14.00
35654;PMS1003;21773;50.010;19.972;2022-08-25T08:11:33;19.50;17.75;15.00
35654;PMS1003;21773;50.010;19.972;2022-08-25T08:14:54;16.00;14.20;12.20
35654;PMS1003;21773;50.010;19.972;2022-08-25T08:17:59;17.80;15.20;13.20
35654;PMS1003;21773;50.010;19.972;2022-08-25T08:21:03;17.60;17.00;15.00
35654;PMS1003;21773;50.010;19.972;2022-08-25T08:24:13;19.20;18.20;16.20
35654;PMS1003;21773;50.010;19.972;2022-08-25T08:27:36;21.00;16.60;14.40
35654;PMS1003;21773;50.010;19.972;2022-08-25T08:30:40;16.25;16.00;14.00
35654;PMS1003;21773;50.010;19.972;2022-08-25T08:33:55;18.60;17.00;15.00
35654;PMS1003;21773;50.010;19.972;2022-08-25T08:36:59;17.00;16.00;14.00
35654;PMS1003;21773;50.010;19.972;2022-08-25T08:40:03;20.40;17.00;14.00
35654;PMS1003;21773;50.010;19.972;2022-08-25T08:43:11;20.00;17.40;15.00
35654;PMS1003;21773;50.010;19.972;2022-08-25T08:46:20;19.00;18.00;15.60
35654;PMS1003;21773;50.010;19.972;2022-08-25T08:49:29;22.00;19.25;17.00
35654;PMS1003;21773;50.010;19.972;2022-08-25T08:52:41;17.00;16.50;15.00
35654;PMS1003;21773;50.010;19.972;2022-08-25T08:55:50;19.40;17.00;15.00
35654;PMS1003;21773;50.010;19.972;2022-08-25T08:58:58;18.00;17.00;15.00
35654;PMS1003;21773;50.010;19.972;2022-08-25T09:02:12;20.40;17.40;15.00
35654;PMS1003;21773;50.010;19.972;2022-08-25T09:05:45;18.00;17.00;15.00
35654;PMS1003;21773;50.010;19.972;2022-08-25T09:08:50;18.00;16.60;15.00
35654;PMS1003;21773;50.010;19.972;2022-08-25T09:12:00;19.40;18.40;15.00
35654;PMS1003;21773;50.010;19.972;2022-08-25T09:15:15;21.60;19.60;17.20
35654;PMS1003;21773;50.010;19.972;2022-08-25T09:18:56;21.00;20.00;18.00
35654;PMS1003;21773;50.010;19.972;2022-08-25T09:22:13;20.00;18.00;15.00
35654;PMS1003;21773;50.010;19.972;2022-08-25T09:25:38;23.40;19.40;16.40
35654;PMS1003;21773;50.010;19.972;2022-08-25T09:28:58;18.60;17.00;15.40
35654;PMS1003;21773;50.010;19.972;2022-08-25T09:32:06;18.00;16.50;14.50
35654;PMS1003;21773;50.010;19.972;2022-08-25T09:35:17;17.50;15.50;14.50
35654;PMS1003;21773;50.010;19.972;2022-08-25T09:38:24;18.60;17.60;16.00
35654;PMS1003;21773;50.010;19.972;2022-08-25T09:41:43;19.00;16.40;14.00
35654;PMS1003;21773;50.010;19.972;2022-08-25T09:44:52;20.00;18.00;17.00
35654;PMS1003;21773;50.010;19.972;2022-08-25T09:47:55;18.50;17.00;15.00
35654;PMS1003;21773;50.010;19.972;2022-08-25T09:50:59;16.00;15.00;13.00
35654;PMS1003;21773;50.010;19.972;2022-08-25T09:54:17;17.00;16.00;14.00
35654;PMS1003;21773;50.010;19.972;2022-08-25T09:57:35;16.00;15.00;13.00
35654;PMS1003;21773;50.010;19.972;2022-08-25T10:00:59;19.00;16.00;14.00
35654;PMS1003;21773;50.010;19.972;2022-08-25T10:04:05;14.00;13.00;12.00
35654;PMS1003;21773;50.010;19.972;2022-08-25T10:07:22;17.00;15.60;14.40
35654;PMS1003;21773;50.010;19.972;2022-08-25T10:10:30;16.00;14.00;12.00
35654;PMS1003;21773;50.010;19.972;2022-08-25T10:13:37;14.75;13.00;11.00
35654;PMS1003;21773;50.010;19.972;2022-08-25T10:16:44;15.00;14.00;12.00
35654;PMS1003;21773;50.010;19.972;2022-08-25T10:19:50;14.40;13.00;12.00
35654;PMS1003;21773;50.010;19.972;2022-08-25T10:23:07;18.00;17.00;16.00
35654;PMS1003;21773;50.010;19.972;2022-08-25T10:26:18;15.60;14.60;13.60
35654;PMS1003;21773;50.010;19.972;2022-08-25T10:29:41;13.50;13.00;12.00
35654;PMS1003;21773;50.010;19.972;2022-08-25T10:33:08;12.60;11.40;10.00
35654;PMS1003;21773;50.010;19.972;2022-08-25T10:36:19;13.60;12.60;11.40
35654;PMS1003;21773;50.010;19.972;2022-08-25T10:39:27;15.00;14.00;12.00
35654;PMS1003;21773;50.010;19.972;2022-08-25T10:42:44;14.00;13.00;11.00
35654;PMS1003;21773;50.010;19.972;2022-08-25T10:46:01;14.20;13.00;11.80
35654;PMS1003;21773;50.010;19.972;2022-08-25T10:49:13;13.00;12.60;11.00
35654;PMS1003;21773;50.010;19.972;2022-08-25T10:52:22;14.00;13.00;11.00
35654;PMS1003;21773;50.010;19.972;2022-08-25T10:55:36;12.60;11.00;10.60
35654;PMS1003;21773;50.010;19.972;2022-08-25T10:58:58;11.80;11.00;9.20
35654;PMS1003;21773;50.010;19.972;2022-08-25T11:02:25;15.40;14.00;12.00
35654;PMS1003;21773;50.010;19.972;2022-08-25T11:05:47;15.60;13.00;12.00
35654;PMS1003;21773;50.010;19.972;2022-08-25T11:08:55;13.75;11.75;10.75
35654;PMS1003;21773;50.010;19.972;2022-08-25T11:12:07;13.40;12.40;10.40
35654;PMS1003;21773;50.010;19.972;2022-08-25T11:15:18;14.50;13.00;11.00
35654;PMS1003;21773;50.010;19.972;2022-08-25T11:18:25;14.00;13.00;11.00
35654;PMS1003;21773;50.010;19.972;2022-08-25T11:21:34;12.40;10.80;10.00
35654;PMS1003;21773;50.010;19.972;2022-08-25T11:24:50;13.00;12.00;10.00
35654;PMS1003;21773;50.010;19.972;2022-08-25T11:28:05;12.50;11.75;9.75
35654;PMS1003;21773;50.010;19.972;2022-08-25T11:31:14;13.00;12.00;10.00
35654;PMS1003;21773;50.010;19.972;2022-08-25T11:34:20;13.00;12.40;10.40
35654;PMS1003;21773;50.010;19.972;2022-08-25T11:37:26;13.00;12.00;10.80
35654;PMS1003;21773;50.010;19.972;2022-08-25T11:40:40;12.60;12.00;10.40
35654;PMS1003;21773;50.010;19.972;2022-08-25T11:47:27;11.20;9.00;8.00
35654;PMS1003;21773;50.010;19.972;2022-08-25T11:50:54;10.75;10.75;10.00
35654;PMS1003;21773;50.010;19.972;2022-08-25T11:54:05;14.40;13.40;11.40
35654;PMS1003;21773;50.010;19.972;2022-08-25T11:57:20;10.00;9.40;8.40
35654;PMS1003;21773;50.010;19.972;2022-08-25T12:00:37;11.60;11.00;9.60
35654;PMS1003;21773;50.010;19.972;2022-08-25T12:03:52;12.00;12.00;11.00
35654;PMS1003;21773;50.010;19.972;2022-08-25T12:07:25;11.40;10.40;9.00
35654;PMS1003;21773;50.010;19.972;2022-08-25T12:10:51;10.20;8.20;8.00
35654;PMS1003;21773;50.010;19.972;2022-08-25T12:14:06;11.50;10.50;9.50
35654;PMS1003;21773;50.010;19.972;2022-08-25T12:17:24;11.50;11.00;10.00
35654;PMS1003;21773;50.010;19.972;2022-08-25T12:24:14;11.00;10.40;9.80
35654;PMS1003;21773;50.010;19.972;2022-08-25T12:27:23;14.00;12.00;10.80
35654;PMS1003;21773;50.010;19.972;2022-08-25T12:30:38;13.00;12.00;10.00
35654;PMS1003;21773;50.010;19.972;2022-08-25T12:33:54;13.00;11.00;10.00
35654;PMS1003;21773;50.010;19.972;2022-08-25T12:37:15;14.20;12.80;11.20
35654;PMS1003;21773;50.010;19.972;2022-08-25T12:40:22;13.75;12.00;11.00
35654;PMS1003;21773;50.010;19.972;2022-08-25T12:43:30;17.00;15.00;13.00
35654;PMS1003;21773;50.010;19.972;2022-08-25T12:46:38;12.00;11.40;10.00
35654;PMS1003;21773;50.010;19.972;2022-08-25T12:49:48;14.00;11.50;10.00
35654;PMS1003;21773;50.010;19.972;2022-08-25T12:52:53;15.00;14.00;13.00
35654;PMS1003;21773;50.010;19.972;2022-08-25T12:56:01;14.50;13.00;12.00
35654;PMS1003;21773;50.010;19.972;2022-08-25T12:59:11;13.00;12.00;11.00
35654;PMS1003;21773;50.010;19.972;2022-08-25T13:06:05;13.60;13.00;11.60
35654;PMS1003;21773;50.010;19.972;2022-08-25T13:13:03;15.40;12.40;10.00
35654;PMS1003;21773;50.010;19.972;2022-08-25T13:16:15;14.40;13.40;12.00
35654;PMS1003;21773;50.010;19.972;2022-08-25T13:19:20;12.20;10.00;8.80
35654;PMS1003;21773;50.010;19.972;2022-08-25T13:22:24;14.60;12.60;11.60
35654;PMS1003;21773;50.010;19.972;2022-08-25T13:25:32;13.25;12.00;10.00
35654;PMS1003;21773;50.010;19.972;2022-08-25T13:28:37;12.00;11.00;10.00
35654;PMS1003;21773;50.010;19.972;2022-08-25T13:31:52;15.00;13.00;11.00
35654;PMS1003;21773;50.010;19.972;2022-08-25T13:35:06;11.00;10.00;9.40
35654;PMS1003;21773;50.010;19.972;2022-08-25T13:38:15;15.00;14.40;13.00
35654;PMS1003;21773;50.010;19.972;2022-08-25T13:41:22;14.00;12.33;11.33
35654;PMS1003;21773;50.010;19.972;2022-08-25T13:44:35;14.00;12.60;12.00
35654;PMS1003;21773;50.010;19.972;2022-08-25T13:47:52;12.40;11.00;10.00
35654;PMS1003;21773;50.010;19.972;2022-08-25T13:51:02;11.00;10.00;9.40
35654;PMS1003;21773;50.010;19.972;2022-08-25T13:54:23;13.75;11.00;9.75
35654;PMS1003;21773;50.010;19.972;2022-08-25T13:57:31;13.00;12.00;11.00
35654;PMS1003;21773;50.010;19.972;2022-08-25T14:00:40;13.00;12.40;10.40
35654;PMS1003;21773;50.010;19.972;2022-08-25T14:03:47;14.00;12.00;10.00
35654;PMS1003;21773;50.010;19.972;2022-08-25T14:07:08;12.40;11.80;10.20
35654;PMS1003;21773;50.010;19.972;2022-08-25T14:10:30;14.00;13.00;11.75
35654;PMS1003;21773;50.010;19.972;2022-08-25T14:13:40;15.40;14.00;13.00
35654;PMS1003;21773;50.010;19.972;2022-08-25T14:16:46;13.00;12.00;10.80
35654;PMS1003;21773;50.010;19.972;2022-08-25T14:19:57;14.60;13.00;12.00
35654;PMS1003;21773;50.010;19.972;2022-08-25T14:23:02;15.50;13.50;11.50
35654;PMS1003;21773;50.010;19.972;2022-08-25T14:26:10;14.25;12.75;11.25
35654;PMS1003;21773;50.010;19.972;2022-08-25T14:29:15;15.00;14.00;12.00
35654;PMS1003;21773;50.010;19.972;2022-08-25T14:32:19;18.25;16.25;14.25
35654;PMS1003;21773;50.010;19.972;2022-08-25T14:35:23;19.00;18.00;15.00
35654;PMS1003;21773;50.010;19.972;2022-08-25T14:38:27;16.00;14.00;12.00
35654;PMS1003;21773;50.010;19.972;2022-08-25T14:41:31;15.75;14.00;12.25
35654;PMS1003;21773;50.010;19.972;2022-08-25T14:44:37;14.00;12.00;11.00
35654;PMS1003;21773;50.010;19.972;2022-08-25T14:47:40;13.50;12.50;11.00
35654;PMS1003;21773;50.010;19.972;2022-08-25T14:50:50;13.80;12.00;10.20
35654;PMS1003;21773;50.010;19.972;2022-08-25T14:53:55;17.00;15.00;14.00
35654;PMS1003;21773;50.010;19.972;2022-08-25T14:57:01;16.50;14.75;13.50
35654;PMS1003;21773;50.010;19.972;2022-08-25T15:00:10;13.20;12.20;11.00
35654;PMS1003;21773;50.010;19.972;2022-08-25T15:03:19;15.80;14.80;12.80
35654;PMS1003;21773;50.010;19.972;2022-08-25T15:06:32;14.00;12.40;11.40
35654;PMS1003;21773;50.010;19.972;2022-08-25T15:09:37;14.00;12.00;9.00
35654;PMS1003;21773;50.010;19.972;2022-08-25T15:12:40;18.00;15.50;13.00
35654;PMS1003;21773;50.010;19.972;2022-08-25T15:15:55;18.00;16.00;14.00
35654;PMS1003;21773;50.010;19.972;2022-08-25T15:19:01;14.80;14.00;12.00
35654;PMS1003;21773;50.010;19.972;2022-08-25T15:22:07;12.40;12.00;11.00
35654;PMS1003;21773;50.010;19.972;2022-08-25T15:25:11;14.00;13.00;12.00
35654;PMS1003;21773;50.010;19.972;2022-08-25T15:28:14;14.40;12.80;11.00
35654;PMS1003;21773;50.010;19.972;2022-08-25T15:31:23;16.60;15.40;13.00
35654;PMS1003;21773;50.010;19.972;2022-08-25T15:34:27;16.00;15.00;13.80
35654;PMS1003;21773;50.010;19.972;2022-08-25T15:37:31;15.75;14.00;12.00
35654;PMS1003;21773;50.010;19.972;2022-08-25T15:40:34;14.00;12.20;11.60
35654;PMS1003;21773;50.010;19.972;2022-08-25T15:43:40;13.80;12.80;11.00
35654;PMS1003;21773;50.010;19.972;2022-08-25T15:46:45;19.00;17.00;15.00
35654;PMS1003;21773;50.010;19.972;2022-08-25T15:49:51;16.67;13.67;12.00
35654;PMS1003;21773;50.010;19.972;2022-08-25T15:53:04;17.80;15.80;14.20
35654;PMS1003;21773;50.010;19.972;2022-08-25T15:56:11;16.60;16.00;15.60
35654;PMS1003;21773;50.010;19.972;2022-08-25T15:59:28;17.40;16.00;14.40
35654;PMS1003;21773;50.010;19.972;2022-08-25T16:02:33;15.25;14.00;13.00
35654;PMS1003;21773;50.010;19.972;2022-08-25T16:05:37;13.20;13.20;12.20
35654;PMS1003;21773;50.010;19.972;2022-08-25T16:08:49;18.00;14.00;13.00
35654;PMS1003;21773;50.010;19.972;2022-08-25T16:11:54;19.60;17.60;15.00
35654;PMS1003;21773;50.010;19.972;2022-08-25T16:15:05;19.25;18.00;16.50
35654;PMS1003;21773;50.010;19.972;2022-08-25T16:18:14;18.40;17.00;15.00
35654;PMS1003;21773;50.010;19.972;2022-08-25T16:21:22;18.00;16.75;14.75
35654;PMS1003;21773;50.010;19.972;2022-08-25T16:24:30;18.80;15.80;13.80
35654;PMS1003;21773;50.010;19.972;2022-08-25T16:27:39;17.80;17.00;15.20
35654;PMS1003;21773;50.010;19.972;2022-08-25T16:30:43;17.00;16.50;15.00
35654;PMS1003;21773;50.010;19.972;2022-08-25T16:33:55;18.00;17.00;15.50
35654;PMS1003;21773;50.010;19.972;2022-08-25T16:36:59;16.60;15.00;14.00
35654;PMS1003;21773;50.010;19.972;2022-08-25T16:40:03;18.67;17.67;16.00
35654;PMS1003;21773;50.010;19.972;2022-08-25T16:43:07;18.60;16.00;15.00
35654;PMS1003;21773;50.010;19.972;2022-08-25T16:46:12;14.00;14.00;13.00
35654;PMS1003;21773;50.010;19.972;2022-08-25T16:49:19;20.80;18.20;16.20
35654;PMS1003;21773;50.010;19.972;2022-08-25T16:52:25;19.20;17.00;15.00
35654;PMS1003;21773;50.010;19.972;2022-08-25T16:55:46;20.00;19.00;17.00
35654;PMS1003;21773;50.010;19.972;2022-08-25T16:58:50;17.00;16.60;15.00
35654;PMS1003;21773;50.010;19.972;2022-08-25T17:01:55;19.00;17.00;16.00
35654;PMS1003;21773;50.010;19.972;2022-08-25T17:05:00;15.60;15.00;14.00
35654;PMS1003;21773;50.010;19.972;2022-08-25T17:08:03;17.60;16.00;15.00
35654;PMS1003;21773;50.010;19.972;2022-08-25T17:11:27;18.50;16.50;15.50
35654;PMS1003;21773;50.010;19.972;2022-08-25T17:14:31;19.00;18.00;15.00
35654;PMS1003;21773;50.010;19.972;2022-08-25T17:17:34;19.00;18.00;17.00
35654;PMS1003;21773;50.010;19.972;2022-08-25T17:20:39;19.40;17.40;16.00
35654;PMS1003;21773;50.010;19.972;2022-08-25T17:23:43;20.00;18.00;16.60
35654;PMS1003;21773;50.010;19.972;2022-08-25T17:26:47;21.00;18.00;18.00
35654;PMS1003;21773;50.010;19.972;2022-08-25T17:29:53;19.60;18.00;15.00
35654;PMS1003;21773;50.010;19.972;2022-08-25T17:32:56;22.20;20.00;18.80